Bonilla, South Dakota
Current Conditions -  °F | °C
As of 9:55 PM on Saturday 25 Oct 2014 (Local Time) from KHON Reporting Station
Clear Clear  
Wind Chill: 45°   Ceiling: Unl
Heat Index: 49°   Visibility: 10mi
Dew Point: 31°   Wind: 8mph
Humidity: 50%   Direction: 120°ESE
Pressure: 30.03"   Gusts: NA
Location:  44.5719°N, 98.4744°W
Report Text: KHON 260255Z AUTO 12007KT 10SM CLR 09/M01 A3003 RMK AO2 SLP172 T00941006 58008
Loading
Personal Weather Stations






























Interactive Weather Map
Tropical Storm Tracking
New forecast layout! Learn more

10-Day Weather Forecast

Advertisements
Track Severe Weather on mobile